Time;durP1;ratioP1;P1;durP2;ratioP2;P2;SDS_P1;SDS_P2;PMS_P1;PMS_P2;Temp;Humidity;BMP_temperature;BMP_pressure;BME280_temperature;BME280_humidity;BME280_pressure;Samples;Min_cycle;Max_cycle;Signal;HPM_P1;HPM_P2
2023/06/06 00:00:32;;;;;;;7.57;4.75;;;;;;;17.25;47.84;100290.44;5014162;28;20081;-77
2023/06/06 00:02:59;;;;;;;8.38;5.20;;;;;;;17.24;47.93;100291.41;5014084;28;20100;-76
2023/06/06 00:05:27;;;;;;;7.85;4.70;;;;;;;17.21;47.88;100279.19;5014112;28;20400;-76
2023/06/06 00:07:54;;;;;;;7.38;4.85;;;;;;;17.16;47.61;100279.53;5012450;28;20046;-76
2023/06/06 00:10:21;;;;;;;6.53;4.90;;;;;;;17.11;47.94;100281.69;5013881;28;20045;-76
2023/06/06 00:12:47;;;;;;;7.88;4.93;;;;;;;17.08;48.20;100275.78;5012425;28;20093;-77
2023/06/06 00:15:15;;;;;;;7.45;4.70;;;;;;;17.03;48.08;100270.75;5012470;28;20125;-76
2023/06/06 00:17:42;;;;;;;7.68;4.95;;;;;;;17.01;48.09;100275.34;5013502;28;20380;-76
2023/06/06 00:20:11;;;;;;;7.45;4.65;;;;;;;16.97;48.13;100281.88;5012338;28;20073;-76
2023/06/06 00:22:39;;;;;;;7.75;4.57;;;;;;;16.92;48.37;100274.22;4996777;28;20521;-76
2023/06/06 00:25:06;;;;;;;8.68;5.38;;;;;;;16.88;48.55;100267.44;5012038;28;21556;-76
2023/06/06 00:27:34;;;;;;;8.98;4.90;;;;;;;16.84;48.41;100265.97;5013095;28;20084;-77
2023/06/06 00:30:02;;;;;;;7.40;4.82;;;;;;;16.79;48.55;100269.00;5012153;28;20060;-76
2023/06/06 00:32:28;;;;;;;8.60;5.85;;;;;;;16.74;48.51;100268.50;5012525;28;20107;-77
2023/06/06 00:34:55;;;;;;;8.70;5.05;;;;;;;16.68;48.56;100267.16;5011768;28;20038;-76
2023/06/06 00:37:22;;;;;;;9.63;4.88;;;;;;;16.64;48.62;100273.66;5011815;28;20080;-76
2023/06/06 00:39:49;;;;;;;7.40;4.97;;;;;;;16.59;48.64;100262.53;5012224;28;20085;-76
2023/06/06 00:42:16;;;;;;;7.78;4.78;;;;;;;16.54;48.85;100269.03;5013398;28;20486;-76
2023/06/06 00:44:42;;;;;;;10.48;5.38;;;;;;;16.49;48.95;100272.97;5013053;28;20060;-76
2023/06/06 00:47:11;;;;;;;10.05;5.32;;;;;;;16.44;49.08;100268.00;5013077;28;20065;-76
2023/06/06 00:49:40;;;;;;;6.35;4.68;;;;;;;16.38;49.33;100260.50;5013356;28;20065;-76
2023/06/06 00:52:09;;;;;;;7.40;4.93;;;;;;;16.36;49.19;100265.06;5013346;28;20512;-76
2023/06/06 00:54:36;;;;;;;6.70;4.95;;;;;;;16.31;49.17;100275.16;5011523;28;20125;-76
2023/06/06 00:57:07;;;;;;;6.97;5.50;;;;;;;16.25;49.45;100264.03;5012899;28;20057;-76
2023/06/06 00:59:34;;;;;;;6.70;5.20;;;;;;;16.22;49.41;100266.91;5012967;28;20046;-76
2023/06/06 01:02:04;;;;;;;8.02;5.53;;;;;;;16.19;49.48;100274.25;5013200;28;20053;-76
2023/06/06 01:04:31;;;;;;;8.60;5.25;;;;;;;16.14;49.46;100269.28;5012947;28;20070;-77
2023/06/06 01:06:58;;;;;;;9.85;6.03;;;;;;;16.08;49.72;100267.06;5012656;28;20058;-76
2023/06/06 01:09:25;;;;;;;7.97;5.80;;;;;;;16.03;49.85;100262.09;5012813;28;20045;-76
2023/06/06 01:12:16;;;;;;;10.18;5.40;;;;;;;15.97;50.59;100274.03;5011543;28;20054;-77
2023/06/06 01:15:06;;;;;;;9.52;5.47;;;;;;;15.94;50.84;100266.25;5012482;28;20056;-76
2023/06/06 01:17:33;;;;;;;7.10;5.47;;;;;;;15.95;49.88;100267.09;5013115;28;20065;-76
2023/06/06 01:20:04;;;;;;;7.45;5.28;;;;;;;15.92;50.08;100267.31;5012483;28;20046;-76
2023/06/06 01:22:32;;;;;;;7.25;5.75;;;;;;;15.89;50.00;100266.53;5012016;28;20069;-76
2023/06/06 01:24:59;;;;;;;10.68;6.07;;;;;;;15.87;50.09;100262.31;5011943;28;20045;-76
2023/06/06 01:27:27;;;;;;;9.50;5.95;;;;;;;15.83;50.38;100267.00;5011020;28;20072;-77
2023/06/06 01:29:54;;;;;;;8.30;5.25;;;;;;;15.80;50.36;100269.00;5011294;28;20045;-76
2023/06/06 01:32:53;;;;;;;8.02;5.82;;;;;;;15.71;51.32;100268.72;5010765;28;20096;-76
2023/06/06 01:36:05;;;;;;;5.88;5.05;;;;;;;15.68;51.13;100262.75;5000681;28;20513;-75
2023/06/06 01:38:44;;;;;;;10.52;5.95;;;;;;;15.66;51.01;100270.00;5008583;28;20053;-76
2023/06/06 01:41:14;;;;;;;8.15;5.72;;;;;;;15.66;50.56;100265.53;5011934;28;20054;-77
2023/06/06 01:43:44;;;;;;;8.57;5.38;;;;;;;15.62;50.51;100259.59;5010552;28;20085;-76
2023/06/06 01:46:12;;;;;;;10.07;5.55;;;;;;;15.59;50.60;100265.09;5010304;28;20441;-77
2023/06/06 01:48:40;;;;;;;10.52;5.65;;;;;;;15.57;50.77;100258.22;5010954;28;20099;-77
2023/06/06 01:51:07;;;;;;;10.30;6.30;;;;;;;15.55;51.18;100258.31;5012163;28;20049;-76
2023/06/06 01:53:34;;;;;;;10.32;5.80;;;;;;;15.54;51.17;100261.06;5011807;28;20069;-77
2023/06/06 01:56:01;;;;;;;10.15;5.65;;;;;;;15.50;50.96;100260.44;5010723;28;20096;-77
2023/06/06 01:58:28;;;;;;;9.60;5.80;;;;;;;15.49;51.10;100262.28;5012160;28;20057;-76
2023/06/06 02:00:54;;;;;;;10.00;6.32;;;;;;;15.45;51.22;100259.94;5010692;28;20559;-77
2023/06/06 02:03:24;;;;;;;8.32;6.10;;;;;;;15.41;51.99;100258.44;5010530;28;20084;-76
2023/06/06 02:05:51;;;;;;;8.93;5.80;;;;;;;15.39;51.16;100261.19;5010479;28;20073;-76
2023/06/06 02:08:18;;;;;;;8.88;5.78;;;;;;;15.37;51.26;100263.94;5011506;28;20136;-76
2023/06/06 02:10:44;;;;;;;9.70;6.22;;;;;;;15.35;51.64;100257.06;5011579;28;20465;-77
2023/06/06 02:13:11;;;;;;;10.45;5.90;;;;;;;15.33;51.55;100264.28;5010313;28;20112;-78
2023/06/06 02:15:38;;;;;;;10.52;6.03;;;;;;;15.31;51.78;100255.56;5011397;28;20433;-77
2023/06/06 02:18:05;;;;;;;12.13;5.82;;;;;;;15.29;51.77;100260.16;5011399;28;20568;-77
2023/06/06 02:20:32;;;;;;;9.15;5.95;;;;;;;15.28;51.81;100256.63;5010506;28;20108;-77
2023/06/06 02:22:58;;;;;;;9.10;5.75;;;;;;;15.28;51.61;100263.75;5011371;28;20089;-76
2023/06/06 02:25:26;;;;;;;8.40;6.25;;;;;;;15.24;51.83;100258.66;5010653;28;20200;-77
2023/06/06 02:27:53;;;;;;;9.52;5.97;;;;;;;15.22;51.90;100260.53;5011258;28;20057;-76
2023/06/06 02:30:20;;;;;;;8.90;6.10;;;;;;;15.19;52.09;100252.81;5009921;28;20148;-76
2023/06/06 02:32:47;;;;;;;10.15;6.20;;;;;;;15.17;52.23;100253.88;5010050;28;20046;-77
2023/06/06 02:35:15;;;;;;;9.43;6.28;;;;;;;15.15;52.33;100251.34;5011177;28;20108;-76
2023/06/06 02:37:42;;;;;;;12.82;6.70;;;;;;;15.14;52.35;100252.25;5011047;28;20060;-76
2023/06/06 02:40:12;;;;;;;9.98;6.60;;;;;;;15.14;52.31;100254.91;5010104;28;20061;-77
2023/06/06 02:42:39;;;;;;;11.07;6.40;;;;;;;15.13;52.60;100252.41;5010150;28;20046;-75
2023/06/06 02:45:08;;;;;;;10.05;6.78;;;;;;;15.12;52.42;100256.84;5011330;28;20097;-76
2023/06/06 02:47:35;;;;;;;10.40;6.10;;;;;;;15.09;52.41;100257.03;5011254;28;20089;-76
2023/06/06 02:50:03;;;;;;;12.65;6.93;;;;;;;15.08;52.50;100250.91;5011132;28;20072;-76
2023/06/06 02:52:31;;;;;;;8.77;6.30;;;;;;;15.05;52.71;100248.47;5015320;28;20058;-75
2023/06/06 02:54:58;;;;;;;9.57;6.63;;;;;;;15.04;52.78;100248.56;5013969;28;20124;-75
2023/06/06 02:57:25;;;;;;;11.38;6.38;;;;;;;15.01;52.68;100246.09;5015229;28;20046;-77
2023/06/06 02:59:53;;;;;;;11.55;6.80;;;;;;;14.99;52.79;100248.84;5013428;28;20058;-76
2023/06/06 03:02:20;;;;;;;12.82;6.68;;;;;;;14.97;53.12;100249.00;5015251;28;20045;-75
2023/06/06 03:04:46;;;;;;;9.40;6.50;;;;;;;14.96;52.99;100252.56;5015040;28;20053;-76
2023/06/06 03:07:13;;;;;;;8.90;6.53;;;;;;;14.96;52.94;100252.56;5013767;28;20064;-76
2023/06/06 03:09:40;;;;;;;12.57;6.70;;;;;;;14.95;53.07;100252.69;5013750;28;20487;-76
2023/06/06 03:12:07;;;;;;;10.57;6.55;;;;;;;14.93;53.17;100251.94;5014523;28;20515;-76
2023/06/06 03:14:34;;;;;;;9.95;6.50;;;;;;;14.91;53.17;100253.84;5014285;28;20046;-76
2023/06/06 03:17:13;;;;;;;9.98;6.75;;;;;;;14.91;53.38;100261.81;5015116;28;20050;-77
2023/06/06 03:19:40;;;;;;;11.48;6.57;;;;;;;14.90;53.43;100257.44;5013872;28;20050;-75
2023/06/06 03:22:06;;;;;;;9.48;5.82;;;;;;;14.88;53.40;100257.53;5013580;28;20046;-75
2023/06/06 03:24:35;;;;;;;9.30;6.70;;;;;;;14.88;53.38;100256.69;5012917;28;20141;-76
2023/06/06 03:27:03;;;;;;;12.50;6.47;;;;;;;14.88;53.75;100264.66;5012832;28;20046;-76
2023/06/06 03:29:30;;;;;;;13.48;7.13;;;;;;;14.87;53.80;100257.66;5028162;22;20104;-77
2023/06/06 03:31:57;;;;;;;10.38;6.10;;;;;;;14.87;53.73;100258.50;5034144;28;20052;-76
2023/06/06 03:34:25;;;;;;;13.25;6.18;;;;;;;14.86;53.88;100256.81;5034124;28;20053;-76
2023/06/06 03:36:52;;;;;;;8.55;6.03;;;;;;;14.85;53.85;100265.72;5033672;28;20049;-76
2023/06/06 03:39:18;;;;;;;12.55;7.72;;;;;;;14.84;53.79;100256.91;5034183;28;20045;-75
2023/06/06 03:41:45;;;;;;;18.63;6.55;;;;;;;14.84;53.89;100256.06;5032875;28;20080;-77
2023/06/06 03:44:12;;;;;;;11.38;6.38;;;;;;;14.83;53.95;100257.00;5034017;28;20077;-76
2023/06/06 03:46:38;;;;;;;11.85;7.22;;;;;;;14.84;54.27;100258.72;5033552;28;20053;-76
2023/06/06 03:49:05;;;;;;;15.68;6.70;;;;;;;14.84;54.24;100258.72;5034354;28;20536;-76
2023/06/06 03:51:31;;;;;;;8.80;6.15;;;;;;;14.84;54.40;100259.56;5032902;28;20045;-76
2023/06/06 03:53:58;;;;;;;10.38;6.20;;;;;;;14.86;54.27;100256.81;5034104;28;20060;-76
2023/06/06 03:56:25;;;;;;;12.05;6.95;;;;;;;14.87;54.40;100249.72;5033261;28;20603;-76
2023/06/06 03:58:51;;;;;;;10.75;6.45;;;;;;;14.89;54.55;100251.31;5032560;28;20552;-76
2023/06/06 04:01:21;;;;;;;12.23;7.00;;;;;;;14.89;54.57;100251.31;5032593;28;20050;-76
2023/06/06 04:03:47;;;;;;;10.68;7.05;;;;;;;14.92;54.47;100250.25;5032800;28;20052;-76
2023/06/06 04:06:15;;;;;;;12.80;7.22;;;;;;;14.91;54.68;100252.03;5033609;28;20057;-76
2023/06/06 04:08:41;;;;;;;10.05;7.22;;;;;;;14.93;54.73;100252.78;5033200;28;20053;-76
2023/06/06 04:11:08;;;;;;;10.95;7.05;;;;;;;14.93;54.68;100257.25;5032644;28;20096;-76
2023/06/06 04:13:35;;;;;;;10.10;6.82;;;;;;;14.93;54.72;100263.41;5033510;28;20057;-76
2023/06/06 04:16:01;;;;;;;11.25;6.15;;;;;;;14.92;54.76;100269.63;5033278;28;20049;-76
2023/06/06 04:18:28;;;;;;;10.90;6.47;;;;;;;14.92;54.91;100266.97;5033455;28;20085;-76
2023/06/06 04:20:55;;;;;;;15.32;6.78;;;;;;;14.91;54.80;100270.59;5033784;28;20456;-76
2023/06/06 04:23:21;;;;;;;10.95;6.43;;;;;;;14.91;55.09;100264.47;5033653;28;20068;-76
2023/06/06 04:25:48;;;;;;;10.98;6.78;;;;;;;14.91;55.09;100275.06;5033126;28;20719;-76
2023/06/06 04:28:18;;;;;;;9.52;6.72;;;;;;;14.91;55.31;100267.94;5033087;28;20443;-76
2023/06/06 04:30:46;;;;;;;11.15;6.70;;;;;;;14.91;55.51;100275.06;5033064;28;20053;-76
2023/06/06 04:33:15;;;;;;;10.20;6.38;;;;;;;14.89;55.35;100274.28;5032269;28;20069;-76
2023/06/06 04:35:42;;;;;;;12.00;7.05;;;;;;;14.90;55.35;100276.84;5032812;28;20478;-76
2023/06/06 04:38:10;;;;;;;11.18;7.22;;;;;;;14.88;55.73;100275.25;5032560;28;20485;-77
2023/06/06 04:40:40;;;;;;;11.65;6.75;;;;;;;14.89;55.74;100279.59;5033132;28;20095;-76
2023/06/06 04:43:27;;;;;;;12.32;6.63;;;;;;;14.91;55.84;100269.75;5033283;28;20149;-76
2023/06/06 04:46:00;;;;;;;10.50;6.57;;;;;;;14.93;55.63;100276.66;5033253;28;20049;-76
2023/06/06 04:48:28;;;;;;;8.90;6.70;;;;;;;14.96;55.79;100272.94;5032744;28;20204;-76
2023/06/06 04:50:56;;;;;;;15.55;7.25;;;;;;;14.98;55.88;100277.19;5030954;28;20099;-76
2023/06/06 04:53:23;;;;;;;15.68;7.28;;;;;;;15.02;55.84;100277.00;5032345;28;20053;-76
2023/06/06 04:55:50;;;;;;;11.48;6.82;;;;;;;15.05;55.98;100276.75;5032615;28;20077;-76
2023/06/06 04:58:21;;;;;;;11.70;7.40;;;;;;;15.07;56.17;100275.69;5032898;28;20414;-76
2023/06/06 05:00:49;;;;;;;10.70;7.22;;;;;;;15.11;56.20;100277.19;5032498;28;20072;-76
2023/06/06 05:03:18;;;;;;;14.13;7.53;;;;;;;15.13;56.26;100274.44;5031845;28;20062;-77
2023/06/06 05:05:49;;;;;;;12.43;7.60;;;;;;;15.15;56.93;100269.91;5032473;28;20070;-76
2023/06/06 05:08:16;;;;;;;12.05;7.15;;;;;;;15.19;56.31;100274.03;5032800;28;20049;-76
2023/06/06 05:10:43;;;;;;;13.30;7.68;;;;;;;15.21;56.42;100269.47;5032232;28;20077;-76
2023/06/06 05:13:09;;;;;;;11.32;6.93;;;;;;;15.26;56.46;100268.31;5032466;28;20045;-76
2023/06/06 05:15:36;;;;;;;11.57;7.43;;;;;;;15.29;56.38;100273.41;5032710;28;20632;-78
2023/06/06 05:18:03;;;;;;;12.50;7.32;;;;;;;15.32;56.51;100271.38;5032564;28;20041;-77
2023/06/06 05:20:30;;;;;;;10.90;7.53;;;;;;;15.35;56.32;100272.97;5032589;28;20441;-76
2023/06/06 05:22:57;;;;;;;12.23;7.57;;;;;;;15.39;56.57;100278.94;5031360;28;20052;-76
2023/06/06 05:25:23;;;;;;;12.88;8.05;;;;;;;15.41;56.71;100275.22;5032598;28;20049;-76
2023/06/06 05:27:51;;;;;;;12.95;7.75;;;;;;;15.45;56.66;100279.34;5031128;28;20147;-76
2023/06/06 05:30:19;;;;;;;12.10;8.25;;;;;;;15.50;56.65;100286.97;5032398;28;20099;-76
2023/06/06 05:32:46;;;;;;;14.43;7.97;;;;;;;15.54;56.79;100282.28;5031187;28;20647;-76
2023/06/06 05:35:12;;;;;;;13.60;8.13;;;;;;;15.58;56.81;100284.66;5031933;28;20049;-76
2023/06/06 05:37:41;;;;;;;12.55;8.02;;;;;;;15.62;57.14;100287.91;5032442;28;20041;-76
2023/06/06 05:40:09;;;;;;;11.95;7.93;;;;;;;15.67;56.97;100279.66;5032396;28;20049;-75
2023/06/06 05:42:36;;;;;;;12.45;7.85;;;;;;;15.72;56.88;100281.03;5031706;28;20160;-76
2023/06/06 05:45:03;;;;;;;10.25;7.53;;;;;;;15.77;56.81;100278.91;5031372;28;20048;-76
2023/06/06 05:47:30;;;;;;;12.55;7.55;;;;;;;15.83;56.96;100279.41;5031630;28;20528;-76
2023/06/06 05:49:57;;;;;;;12.27;7.55;;;;;;;15.87;56.96;100280.88;5037256;22;20053;-76
2023/06/06 05:52:24;;;;;;;16.17;9.00;;;;;;;15.93;56.80;100280.47;5012368;28;20052;-76
2023/06/06 05:55:00;;;;;;;13.35;8.63;;;;;;;15.97;57.62;100286.44;5011850;28;20064;-76
2023/06/06 05:57:27;;;;;;;17.50;9.25;;;;;;;16.02;56.89;100285.16;5012045;28;20050;-76
2023/06/06 05:59:53;;;;;;;14.65;8.63;;;;;;;16.07;56.98;100284.81;5010687;28;20056;-76
2023/06/06 06:02:20;;;;;;;13.07;7.80;;;;;;;16.13;56.91;100281.72;5011459;28;20506;-77
2023/06/06 06:04:52;;;;;;;20.08;8.23;;;;;;;16.18;57.01;100289.34;5011062;28;20085;-76
2023/06/06 06:07:19;;;;;;;15.05;8.55;;;;;;;16.25;56.86;100292.41;5012058;28;20050;-75
2023/06/06 06:09:46;;;;;;;15.07;8.45;;;;;;;16.31;56.72;100291.13;5011978;28;20065;-76
2023/06/06 06:12:12;;;;;;;13.52;8.25;;;;;;;16.36;56.78;100287.16;5011526;28;20135;-76
2023/06/06 06:14:39;;;;;;;13.40;8.90;;;;;;;16.42;56.74;100289.34;5011555;28;20136;-76
2023/06/06 06:17:05;;;;;;;11.85;8.48;;;;;;;16.48;56.58;100296.03;5011557;28;20046;-76
2023/06/06 06:19:32;;;;;;;11.32;8.75;;;;;;;16.53;56.78;100296.53;5011918;28;20060;-76
2023/06/06 06:21:58;;;;;;;11.82;8.07;;;;;;;16.59;56.94;100305.88;5011352;28;20479;-76
2023/06/06 06:24:25;;;;;;;11.60;8.23;;;;;;;16.65;57.19;100296.59;5011775;28;20046;-77
2023/06/06 06:26:52;;;;;;;13.35;8.68;;;;;;;16.71;57.03;100296.13;5009528;28;20490;-76
2023/06/06 06:29:18;;;;;;;14.50;8.48;;;;;;;16.78;56.74;100296.53;5011531;28;20052;-76
2023/06/06 06:31:45;;;;;;;14.18;7.90;;;;;;;16.85;56.80;100305.75;5011592;28;20449;-80
2023/06/06 06:34:12;;;;;;;16.85;8.75;;;;;;;16.91;56.77;100304.44;5011696;28;20053;-77
2023/06/06 06:36:38;;;;;;;13.60;8.63;;;;;;;16.97;56.58;100305.81;5011165;28;20045;-76
2023/06/06 06:39:05;;;;;;;11.45;7.88;;;;;;;17.04;56.63;100304.34;5011428;28;20054;-77
2023/06/06 06:41:31;;;;;;;14.57;8.32;;;;;;;17.10;56.53;100303.09;5011024;28;20082;-77
2023/06/06 06:43:58;;;;;;;11.93;8.20;;;;;;;17.17;56.49;100304.31;5009624;28;20053;-77
2023/06/06 06:46:24;;;;;;;12.38;8.38;;;;;;;17.24;56.50;100307.34;5011124;28;20058;-76
2023/06/06 06:48:51;;;;;;;15.27;8.00;;;;;;;17.30;56.67;100302.41;5009225;28;20523;-76
2023/06/06 06:51:19;;;;;;;15.05;8.98;;;;;;;17.38;56.41;100301.00;5011192;28;20053;-77
2023/06/06 06:53:46;;;;;;;14.18;8.75;;;;;;;17.46;56.24;100309.22;5011247;28;20200;-79
2023/06/06 06:56:15;;;;;;;13.80;8.65;;;;;;;17.52;56.30;100303.41;5010938;28;20050;-79
2023/06/06 06:58:42;;;;;;;12.75;8.95;;;;;;;17.58;56.25;100302.91;5011046;28;20619;-77
2023/06/06 07:01:08;;;;;;;11.88;8.73;;;;;;;17.65;56.35;100307.78;5010210;28;20390;-77
2023/06/06 07:03:35;;;;;;;13.20;8.18;;;;;;;17.71;56.23;100305.50;5011290;28;20058;-77
2023/06/06 07:06:05;;;;;;;16.17;8.93;;;;;;;17.79;56.13;100304.88;5011221;28;20465;-77
2023/06/06 07:08:31;;;;;;;14.50;9.20;;;;;;;17.88;56.06;100310.44;5011066;28;20082;-76
2023/06/06 07:10:58;;;;;;;11.05;8.38;;;;;;;17.94;56.15;100313.47;5011060;28;20046;-77
2023/06/06 07:13:24;;;;;;;14.68;8.80;;;;;;;18.00;55.83;100312.13;5011195;28;20050;-76
2023/06/06 07:15:51;;;;;;;15.68;9.25;;;;;;;18.08;55.65;100316.88;5010877;28;20045;-77
2023/06/06 07:18:17;;;;;;;13.52;8.95;;;;;;;18.15;55.77;100309.22;5009852;28;20077;-77
2023/06/06 07:20:44;;;;;;;15.00;9.60;;;;;;;18.20;55.82;100310.56;5011080;28;20061;-77
2023/06/06 07:23:11;;;;;;;14.73;8.90;;;;;;;18.27;55.91;100318.91;5009667;28;20152;-77
2023/06/06 07:25:40;;;;;;;15.93;9.27;;;;;;;18.33;55.51;100309.56;5010812;28;20421;-77
2023/06/06 07:28:07;;;;;;;13.65;9.23;;;;;;;18.40;55.63;100307.25;5010981;28;20512;-77
2023/06/06 07:30:34;;;;;;;11.63;8.88;;;;;;;18.46;55.93;100306.75;5010929;28;20482;-76
2023/06/06 07:33:01;;;;;;;15.90;10.05;;;;;;;18.53;55.74;100307.94;5010943;28;20244;-76
2023/06/06 07:35:32;;;;;;;13.05;9.10;;;;;;;18.60;55.88;100301.16;5010937;28;20054;-77
2023/06/06 07:38:00;;;;;;;12.98;9.18;;;;;;;18.68;55.59;100299.66;5013519;28;20140;-77
2023/06/06 07:40:26;;;;;;;14.27;9.13;;;;;;;18.77;55.80;100304.25;5014602;28;20490;-77
2023/06/06 07:42:54;;;;;;;11.35;8.65;;;;;;;18.85;55.60;100299.13;5013552;28;20058;-79
2023/06/06 07:45:21;;;;;;;13.57;9.18;;;;;;;18.93;55.54;100292.28;5014392;28;20491;-79
2023/06/06 07:47:48;;;;;;;15.85;9.60;;;;;;;19.02;55.61;100302.16;5014428;28;20057;-77
2023/06/06 07:50:15;;;;;;;14.15;8.68;;;;;;;19.11;55.16;100298.75;5014037;28;20410;-77
2023/06/06 07:52:43;;;;;;;13.05;9.27;;;;;;;19.19;55.32;100294.59;5014262;28;20056;-77
2023/06/06 07:55:11;;;;;;;14.05;8.80;;;;;;;19.27;55.25;100297.47;5014274;28;20100;-77
2023/06/06 07:57:39;;;;;;;14.48;9.20;;;;;;;19.35;55.07;100297.66;5014224;28;20054;-77
2023/06/06 08:00:10;;;;;;;9.27;8.15;;;;;;;19.45;54.92;100302.19;5014427;28;20073;-77
2023/06/06 08:02:37;;;;;;;13.60;9.00;;;;;;;19.55;55.15;100303.06;5014156;28;20054;-77
2023/06/06 08:05:04;;;;;;;15.25;8.95;;;;;;;19.64;54.83;100294.28;5013810;28;20053;-77
2023/06/06 08:07:33;;;;;;;14.68;9.48;;;;;;;19.73;54.83;100295.28;5014056;28;20048;-77
2023/06/06 08:09:59;;;;;;;13.43;8.57;;;;;;;19.84;54.57;100297.03;5012826;28;20054;-77
2023/06/06 08:12:26;;;;;;;10.80;8.05;;;;;;;19.94;54.11;100291.72;5014228;28;20065;-77
2023/06/06 08:14:52;;;;;;;12.18;8.75;;;;;;;20.05;54.52;100293.47;5013908;28;20041;-77
2023/06/06 08:17:19;;;;;;;12.95;9.55;;;;;;;20.16;54.36;100296.06;5013869;28;20046;-77
2023/06/06 08:19:46;;;;;;;15.93;8.90;;;;;;;20.26;54.23;100293.38;5013904;28;20509;-77
2023/06/06 08:22:12;;;;;;;14.57;8.55;;;;;;;20.38;54.18;100294.13;5013948;28;20061;-77
2023/06/06 08:24:39;;;;;;;13.50;8.73;;;;;;;20.49;53.66;100294.97;5013813;28;20129;-76
2023/06/06 08:27:06;;;;;;;13.15;9.70;;;;;;;20.60;53.91;100291.31;5013686;28;20081;-77
2023/06/06 08:29:33;;;;;;;12.00;9.45;;;;;;;20.69;53.58;100298.50;5013598;28;20049;-77
2023/06/06 08:32:01;;;;;;;12.10;9.07;;;;;;;20.78;53.91;100294.97;5012641;28;20132;-77
2023/06/06 08:34:28;;;;;;;13.43;9.45;;;;;;;20.88;53.20;100295.00;5012596;28;20045;-77
2023/06/06 08:36:55;;;;;;;14.00;9.20;;;;;;;20.98;53.43;100296.81;5012272;28;20042;-77
2023/06/06 08:39:21;;;;;;;14.68;9.35;;;;;;;21.09;53.37;100291.34;5013606;28;20054;-77
2023/06/06 08:41:53;;;;;;;12.73;8.43;;;;;;;21.18;52.67;100295.81;5013496;28;20054;-77
2023/06/06 08:44:21;;;;;;;16.17;9.23;;;;;;;21.29;53.12;100288.59;5013294;28;20056;-77
2023/06/06 08:46:52;;;;;;;15.63;9.60;;;;;;;21.37;52.93;100291.41;5011890;28;20445;-77
2023/06/06 08:49:20;;;;;;;12.75;8.82;;;;;;;21.49;53.17;100292.06;5011577;28;20050;-77
2023/06/06 08:51:51;;;;;;;13.60;9.30;;;;;;;21.60;52.73;100297.25;5013392;28;20068;-77
2023/06/06 08:54:19;;;;;;;11.25;9.30;;;;;;;21.71;52.35;100295.38;5013371;28;20050;-77
2023/06/06 08:56:46;;;;;;;14.95;9.25;;;;;;;21.82;52.22;100297.03;5012891;28;20061;-77
2023/06/06 08:59:15;;;;;;;12.07;8.93;;;;;;;21.91;52.32;100298.00;5013010;28;20045;-77
2023/06/06 09:01:43;;;;;;;13.50;9.43;;;;;;;22.02;52.16;100294.28;5013174;28;20089;-77
2023/06/06 09:04:13;;;;;;;15.23;9.40;;;;;;;22.10;52.11;100300.56;5013169;28;20050;-77
2023/06/06 09:06:43;;;;;;;13.93;10.10;;;;;;;22.20;52.05;100295.16;5012697;28;20133;-77
2023/06/06 09:09:11;;;;;;;13.65;9.38;;;;;;;22.31;51.45;100293.28;5012941;28;20046;-77
2023/06/06 09:11:38;;;;;;;14.05;9.55;;;;;;;22.41;51.75;100298.53;5012791;28;20050;-77
2023/06/06 09:14:05;;;;;;;13.27;9.45;;;;;;;22.50;52.52;100295.81;5012812;28;20105;-77
2023/06/06 09:16:32;;;;;;;11.88;8.80;;;;;;;22.61;52.35;100294.75;5012644;28;20057;-77
2023/06/06 09:19:01;;;;;;;13.15;8.82;;;;;;;22.71;52.04;100297.38;5012879;28;20053;-77
2023/06/06 09:21:29;;;;;;;11.52;8.68;;;;;;;22.82;51.08;100290.06;5012508;28;20064;-77
2023/06/06 09:23:56;;;;;;;12.90;8.65;;;;;;;22.91;50.86;100299.88;5011432;28;20473;-77
2023/06/06 09:26:23;;;;;;;12.48;8.23;;;;;;;22.99;50.96;100288.38;5012666;28;20081;-77
2023/06/06 09:31:38;;;;;;;11.35;8.38;;;;;;;23.18;50.51;100295.41;5083503;22;20061;-77
2023/06/06 09:34:07;;;;;;;12.48;8.07;;;;;;;23.25;50.51;100291.06;5012417;28;20054;-77
2023/06/06 09:36:35;;;;;;;13.93;8.82;;;;;;;23.35;50.32;100287.47;5011575;28;20357;-77
2023/06/06 09:39:10;;;;;;;18.20;7.97;;;;;;;23.42;50.01;100293.88;5012104;28;20046;-77
2023/06/06 09:41:47;;;;;;;11.80;8.13;;;;;;;23.54;49.59;100300.69;5010793;28;20049;-77
2023/06/06 09:44:25;;;;;;;12.70;8.10;;;;;;;23.63;49.73;100289.97;5010959;28;20108;-77
2023/06/06 09:47:00;;;;;;;12.57;8.57;;;;;;;23.74;49.68;100294.22;5011721;28;20054;-77
2023/06/06 09:49:33;;;;;;;24.42;9.82;;;;;;;23.86;49.44;100292.09;5011990;28;20100;-77
2023/06/06 09:52:00;;;;;;;11.73;7.80;;;;;;;23.99;49.49;100295.16;5011989;28;20444;-77
2023/06/06 09:54:26;;;;;;;20.15;8.45;;;;;;;24.07;49.27;100297.06;5011854;28;20459;-77
2023/06/06 09:56:55;;;;;;;12.50;8.52;;;;;;;24.16;49.06;100285.34;5026811;28;20085;-77
2023/06/06 09:59:25;;;;;;;12.45;7.47;;;;;;;24.24;49.52;100283.66;5011769;28;20133;-77
2023/06/06 10:01:58;;;;;;;12.25;8.18;;;;;;;24.32;48.77;100281.84;5011010;28;20045;-77
2023/06/06 10:04:25;;;;;;;11.15;7.93;;;;;;;24.42;48.94;100278.16;5011819;28;20453;-77
2023/06/06 10:06:57;;;;;;;12.60;8.13;;;;;;;24.51;48.68;100281.72;5011488;28;20304;-77
2023/06/06 10:09:24;;;;;;;13.55;7.75;;;;;;;24.59;48.02;100274.47;5011811;28;20093;-77
2023/06/06 10:11:52;;;;;;;10.45;6.95;;;;;;;24.67;48.22;100278.19;5011660;28;20062;-77
2023/06/06 10:14:21;;;;;;;8.40;6.53;;;;;;;24.77;48.12;100272.63;5011515;28;20486;-77
2023/06/06 10:16:47;;;;;;;10.23;7.05;;;;;;;24.88;47.86;100282.25;5010981;28;20046;-78
2023/06/06 10:19:15;;;;;;;9.02;6.80;;;;;;;24.98;48.33;100282.94;5011807;28;20049;-78
2023/06/06 10:21:44;;;;;;;9.35;6.72;;;;;;;25.08;47.46;100271.97;5011313;28;20054;-78
2023/06/06 10:24:15;;;;;;;9.35;6.18;;;;;;;25.21;47.36;100280.38;5011344;28;20046;-78
2023/06/06 10:26:48;;;;;;;12.75;6.30;;;;;;;25.32;46.81;100272.94;5011106;28;20065;-77
2023/06/06 10:29:28;;;;;;;12.30;6.35;;;;;;;25.40;47.30;100263.97;5026451;28;20056;-77
2023/06/06 10:32:03;;;;;;;9.30;6.38;;;;;;;25.52;47.36;100272.56;5011407;28;20046;-78
2023/06/06 10:34:37;;;;;;;8.98;6.07;;;;;;;25.65;45.98;100275.56;5011136;28;20137;-78
2023/06/06 10:37:15;;;;;;;8.32;5.43;;;;;;;25.78;46.55;100275.00;5025910;28;20133;-78
2023/06/06 10:39:46;;;;;;;8.23;5.43;;;;;;;25.96;46.16;100273.91;5011034;28;20136;-78
2023/06/06 10:42:14;;;;;;;10.10;5.65;;;;;;;26.12;46.43;100260.34;5009934;28;20133;-77
2023/06/06 10:44:55;;;;;;;9.85;4.80;;;;;;;26.31;45.66;100268.19;5011064;28;20145;-78
2023/06/06 10:47:23;;;;;;;7.68;5.20;;;;;;;26.64;46.91;100267.94;5011003;28;20077;-78
2023/06/06 10:50:02;;;;;;;6.32;5.03;;;;;;;27.04;46.54;100259.69;5026587;28;20466;-78
2023/06/06 10:52:29;;;;;;;8.32;4.68;;;;;;;27.56;46.66;100263.34;5010853;28;20038;-78
2023/06/06 10:54:58;;;;;;;9.32;4.57;;;;;;;28.12;45.01;100265.69;5010940;28;20057;-78
2023/06/06 10:57:25;;;;;;;8.13;4.85;;;;;;;28.71;44.75;100264.63;5010971;28;20038;-78
2023/06/06 10:59:52;;;;;;;8.57;4.15;;;;;;;29.31;43.44;100257.16;5011499;28;20042;-78
2023/06/06 11:02:34;;;;;;;6.25;3.83;;;;;;;29.88;42.71;100257.03;5011320;28;20160;-77
2023/06/06 11:05:00;;;;;;;6.10;4.30;;;;;;;30.43;42.06;100262.41;5010803;28;20057;-78
2023/06/06 11:07:28;;;;;;;7.75;4.32;;;;;;;30.88;40.75;100258.28;5010963;28;20054;-78
2023/06/06 11:09:55;;;;;;;6.07;4.25;;;;;;;31.27;39.71;100253.00;5011138;28;20050;-77
2023/06/06 11:12:24;;;;;;;5.13;3.60;;;;;;;31.58;39.10;100248.72;5011791;28;20049;-78
2023/06/06 11:14:56;;;;;;;7.35;3.50;;;;;;;31.88;38.57;100257.41;5014571;28;20533;-78
2023/06/06 11:17:29;;;;;;;6.10;3.25;;;;;;;32.17;37.82;100255.19;5014456;28;20054;-78
2023/06/06 11:19:56;;;;;;;10.43;3.88;;;;;;;32.49;38.09;100252.47;5014786;28;20058;-77
2023/06/06 11:22:25;;;;;;;6.53;3.28;;;;;;;32.79;37.29;100257.25;5014716;28;20060;-78
2023/06/06 11:24:55;;;;;;;7.35;3.50;;;;;;;33.08;34.78;100251.34;5014498;28;20060;-78
2023/06/06 11:27:22;;;;;;;6.47;2.90;;;;;;;33.36;35.42;100247.25;5014601;28;20050;-78